createdAt,value
2023-05-01T00:01:30.230Z,2.38
2023-05-01T00:03:56.898Z,2.50
2023-05-01T00:06:23.639Z,2.30
2023-05-01T00:08:50.159Z,2.58
2023-05-01T00:11:16.670Z,2.60
2023-05-01T00:13:43.162Z,2.47
2023-05-01T00:16:10.808Z,2.38
2023-05-01T00:18:37.775Z,2.30
2023-05-01T00:21:04.578Z,2.17
2023-05-01T00:23:31.094Z,2.05
2023-05-01T00:25:57.538Z,2.10
2023-05-01T00:28:24.058Z,2.72
2023-05-01T00:30:50.689Z,2.50
2023-05-01T00:33:17.193Z,2.25
2023-05-01T00:35:45.063Z,2.58
2023-05-01T00:38:11.740Z,2.80
2023-05-01T00:40:42.844Z,2.33
2023-05-01T00:43:10.907Z,2.80
2023-05-01T00:45:38.183Z,2.50
2023-05-01T00:48:05.822Z,2.53
2023-05-01T00:50:33.228Z,2.97
2023-05-01T00:53:00.244Z,2.55
2023-05-01T00:55:26.907Z,2.85
2023-05-01T01:17:58.615Z,2.67
2023-05-01T01:20:30.388Z,2.90
2023-05-01T01:23:24.915Z,2.95
2023-05-01T01:25:54.433Z,2.67
2023-05-01T01:28:46.467Z,2.75
2023-05-01T01:31:29.705Z,3.15
2023-05-01T01:34:04.340Z,2.85
2023-05-01T01:36:56.397Z,2.70
2023-05-01T01:39:28.891Z,3.20
2023-05-01T01:41:58.750Z,2.70
2023-05-01T01:44:37.204Z,3.30
2023-05-01T01:47:07.281Z,2.83
2023-05-01T01:49:37.237Z,2.90
2023-05-01T01:52:07.829Z,3.00
2023-05-01T01:54:40.523Z,3.00
2023-05-01T01:57:09.471Z,2.85
2023-05-01T02:02:04.931Z,2.63
2023-05-01T02:04:33.386Z,2.65
2023-05-01T02:07:01.289Z,2.63
2023-05-01T02:09:29.900Z,2.30
2023-05-01T02:11:57.499Z,2.55
2023-05-01T02:14:26.744Z,2.67
2023-05-01T02:16:55.359Z,2.55
2023-05-01T02:19:23.511Z,2.70
2023-05-01T02:21:52.305Z,2.70
2023-05-01T02:24:22.535Z,2.30
2023-05-01T02:26:55.101Z,2.45
2023-05-01T02:29:21.572Z,2.67
2023-05-01T02:31:48.195Z,2.72
2023-05-01T02:34:14.738Z,2.78
2023-05-01T02:36:41.187Z,2.83
2023-05-01T02:39:08.412Z,3.00
2023-05-01T02:41:36.150Z,2.65
2023-05-01T02:44:05.725Z,2.63
2023-05-01T02:46:36.841Z,3.42
2023-05-01T02:49:06.203Z,2.42
2023-05-01T02:51:35.662Z,2.80
2023-05-01T02:56:30.159Z,2.30
2023-05-01T02:58:56.903Z,2.50
2023-05-01T03:01:23.538Z,2.72
2023-05-01T03:03:50.018Z,2.58
2023-05-01T03:06:16.537Z,2.97
2023-05-01T03:08:43.185Z,2.78
2023-05-01T03:11:10.003Z,2.70
2023-05-01T03:13:36.761Z,2.60
2023-05-01T03:16:04.440Z,2.60
2023-05-01T03:18:31.011Z,3.33
2023-05-01T03:20:57.554Z,2.72
2023-05-01T03:23:25.486Z,2.65
2023-05-01T03:25:52.346Z,2.40
2023-05-01T03:28:19.060Z,2.75
2023-05-01T03:30:45.669Z,2.80
2023-05-01T03:33:12.227Z,2.90
2023-05-01T03:35:38.970Z,2.50
2023-05-01T03:38:05.984Z,2.80
2023-05-01T03:41:08.336Z,3.08
2023-05-01T03:44:04.722Z,2.75
2023-05-01T03:46:35.138Z,3.00
2023-05-01T03:49:02.148Z,3.40
2023-05-01T03:51:32.609Z,2.95
2023-05-01T03:53:59.224Z,2.90
2023-05-01T03:56:35.357Z,2.75
2023-05-01T03:59:02.532Z,3.00
2023-05-01T04:01:29.291Z,2.70
2023-05-01T04:03:55.823Z,3.05
2023-05-01T04:06:22.901Z,2.75
2023-05-01T04:08:49.422Z,2.95
2023-05-01T04:11:15.897Z,3.05
2023-05-01T04:13:42.564Z,3.10
2023-05-01T04:16:09.353Z,2.83
2023-05-01T04:18:35.830Z,3.60
2023-05-01T04:21:02.511Z,3.72
2023-05-01T04:23:28.991Z,3.08
2023-05-01T04:25:58.186Z,3.03
2023-05-01T04:28:24.733Z,3.70
2023-05-01T04:30:51.236Z,3.38
2023-05-01T04:33:18.058Z,2.90
2023-05-01T04:35:44.873Z,3.00
2023-05-01T04:38:11.642Z,3.38
2023-05-01T04:40:39.822Z,3.55
2023-05-01T04:43:06.288Z,3.35
2023-05-01T04:45:32.848Z,3.50
2023-05-01T04:47:59.816Z,3.70
2023-05-01T04:50:26.743Z,2.65
2023-05-01T04:52:53.295Z,2.92
2023-05-01T04:55:19.711Z,3.33
2023-05-01T04:58:04.795Z,2.83
2023-05-01T05:00:32.645Z,3.25
2023-05-01T05:02:59.347Z,2.97
2023-05-01T05:05:26.274Z,2.80
2023-05-01T05:07:52.911Z,2.72
2023-05-01T05:10:30.542Z,2.63
2023-05-01T05:13:13.634Z,3.15
2023-05-01T05:15:40.194Z,3.30
2023-05-01T05:18:09.551Z,3.20
2023-05-01T05:20:38.864Z,2.78
2023-05-01T05:23:07.310Z,2.72
2023-05-01T05:25:34.657Z,2.60
2023-05-01T05:28:01.162Z,2.83
2023-05-01T05:30:28.033Z,2.83
2023-05-01T05:32:55.026Z,3.17
2023-05-01T05:35:21.734Z,3.58
2023-05-01T05:37:48.222Z,2.80
2023-05-01T05:40:14.862Z,2.83
2023-05-01T05:42:52.149Z,3.00
2023-05-01T05:45:19.858Z,3.22
2023-05-01T05:47:47.021Z,3.53
2023-05-01T05:50:13.817Z,3.30
2023-05-01T05:52:41.572Z,3.28
2023-05-01T05:55:09.497Z,3.38
2023-05-01T05:57:37.740Z,3.63
2023-05-01T06:00:07.464Z,3.00
2023-05-01T06:02:38.862Z,3.38
2023-05-01T06:05:07.537Z,3.65
2023-05-01T06:07:34.220Z,3.28
2023-05-01T06:10:04.925Z,3.38
2023-05-01T06:12:32.003Z,3.42
2023-05-01T06:14:59.832Z,4.57
2023-05-01T06:17:27.479Z,4.40
2023-05-01T06:19:54.093Z,3.92
2023-05-01T06:22:20.901Z,2.63
2023-05-01T06:25:13.841Z,3.17
2023-05-01T06:27:40.302Z,4.00
2023-05-01T06:30:08.673Z,3.97
2023-05-01T06:32:37.060Z,3.80
2023-05-01T06:35:04.524Z,4.15
2023-05-01T06:37:31.018Z,3.80
2023-05-01T06:39:57.733Z,3.70
2023-05-01T06:42:24.407Z,3.60
2023-05-01T06:44:50.838Z,4.03
2023-05-01T06:47:17.311Z,3.08
2023-05-01T06:49:46.129Z,3.42
2023-05-01T06:54:39.762Z,2.88
2023-05-01T06:57:06.272Z,3.22
2023-05-01T06:59:33.627Z,3.28
2023-05-01T07:02:00.095Z,3.58
2023-05-01T07:04:26.732Z,3.50
2023-05-01T07:06:53.254Z,3.63
2023-05-01T07:09:19.787Z,3.03
2023-05-01T07:11:46.470Z,3.55
2023-05-01T07:14:12.919Z,3.40
2023-05-01T07:16:39.643Z,3.78
2023-05-01T07:19:06.236Z,3.55
2023-05-01T07:21:32.994Z,3.47
2023-05-01T07:23:59.566Z,3.03
2023-05-01T07:26:27.052Z,3.30
2023-05-01T07:28:53.622Z,3.58
2023-05-01T07:31:20.134Z,3.45
2023-05-01T07:33:47.570Z,3.70
2023-05-01T07:36:14.038Z,3.22
2023-05-01T07:38:40.727Z,3.15
2023-05-01T07:41:07.441Z,4.07
2023-05-01T07:43:33.970Z,3.63
2023-05-01T07:46:01.576Z,3.58
2023-05-01T07:48:28.687Z,3.10
2023-05-01T07:50:56.567Z,3.88
2023-05-01T07:53:23.062Z,3.33
2023-05-01T07:55:49.869Z,3.53
2023-05-01T07:58:17.305Z,3.63
2023-05-01T08:00:47.170Z,3.38
2023-05-01T08:03:13.776Z,3.70
2023-05-01T08:05:43.080Z,3.65
2023-05-01T08:08:09.810Z,4.00
2023-05-01T08:10:36.478Z,3.55
2023-05-01T08:13:02.954Z,4.15
2023-05-01T08:15:29.334Z,4.10
2023-05-01T08:17:55.848Z,3.90
2023-05-01T08:20:22.426Z,3.55
2023-05-01T08:22:48.908Z,4.15
2023-05-01T08:25:15.590Z,3.50
2023-05-01T08:27:42.077Z,3.75
2023-05-01T08:30:09.291Z,3.60
2023-05-01T08:32:35.946Z,4.18
2023-05-01T08:35:02.506Z,3.70
2023-05-01T08:37:29.006Z,3.85
2023-05-01T08:39:56.046Z,4.25
2023-05-01T08:42:22.866Z,4.03
2023-05-01T08:44:51.103Z,4.10
2023-05-01T08:47:18.907Z,3.55
2023-05-01T08:49:46.700Z,4.13
2023-05-01T08:52:14.878Z,3.90
2023-05-01T08:54:47.082Z,3.95
2023-05-01T08:57:13.797Z,3.55
2023-05-01T08:59:41.131Z,3.55
2023-05-01T09:02:09.156Z,4.18
2023-05-01T09:04:40.515Z,4.15
2023-05-01T09:07:07.758Z,4.10
2023-05-01T09:09:34.427Z,4.03
2023-05-01T09:12:23.114Z,4.20
2023-05-01T09:14:51.863Z,3.78
2023-05-01T09:19:45.264Z,3.47
2023-05-01T09:22:11.773Z,3.78
2023-05-01T09:24:38.304Z,3.75
2023-05-01T09:27:05.871Z,4.15
2023-05-01T09:29:43.913Z,4.45
2023-05-01T09:32:13.716Z,3.53
2023-05-01T09:34:40.519Z,3.97
2023-05-01T09:37:06.947Z,4.47
2023-05-01T09:39:33.451Z,4.45
2023-05-01T09:42:00.025Z,3.85
2023-05-01T09:44:26.868Z,3.33
2023-05-01T09:46:54.340Z,3.35
2023-05-01T09:49:41.658Z,3.53
2023-05-01T09:52:11.784Z,3.13
2023-05-01T09:54:38.216Z,3.70
2023-05-01T09:57:05.059Z,3.88
2023-05-01T09:59:34.294Z,3.38
2023-05-01T10:02:01.551Z,3.45
2023-05-01T10:04:34.988Z,3.42
2023-05-01T10:07:13.338Z,3.50
2023-05-01T10:09:41.175Z,3.60
2023-05-01T10:12:07.630Z,4.05
2023-05-01T10:14:38.648Z,3.78
2023-05-01T10:17:18.949Z,4.18
2023-05-01T10:19:47.189Z,3.97
2023-05-01T10:22:14.631Z,3.65
2023-05-01T10:24:42.402Z,3.80
2023-05-01T10:27:10.330Z,3.58
2023-05-01T10:29:38.000Z,3.63
2023-05-01T10:32:07.537Z,3.50
2023-05-01T10:34:37.409Z,3.05
2023-05-01T10:37:14.098Z,3.17
2023-05-01T10:39:40.620Z,2.92
2023-05-01T10:42:13.913Z,2.85
2023-05-01T10:44:44.082Z,2.75
2023-05-01T10:47:27.445Z,2.75
2023-05-01T10:50:04.631Z,2.67
2023-05-01T10:52:31.317Z,2.67
2023-05-01T10:55:33.814Z,2.78
2023-05-01T10:58:01.131Z,2.90
2023-05-01T11:00:27.741Z,2.92
2023-05-01T11:03:22.059Z,3.22
2023-05-01T11:06:01.161Z,3.33
2023-05-01T11:08:39.027Z,3.03
2023-05-01T11:11:21.549Z,2.85
2023-05-01T11:14:08.467Z,3.53
2023-05-01T11:16:38.842Z,3.38
2023-05-01T11:19:33.689Z,3.38
2023-05-01T11:22:00.575Z,3.60
2023-05-01T11:24:33.230Z,3.00
2023-05-01T11:27:02.603Z,2.45
2023-05-01T11:29:37.559Z,3.45
2023-05-01T11:32:04.987Z,2.97
2023-05-01T11:34:37.749Z,3.20
2023-05-01T11:37:05.503Z,2.83
2023-05-01T11:39:32.081Z,2.80
2023-05-01T11:42:10.877Z,2.50
2023-05-01T11:44:47.484Z,3.03
2023-05-01T11:47:14.499Z,2.90
2023-05-01T11:49:42.782Z,2.55
2023-05-01T11:52:09.325Z,3.50
2023-05-01T11:54:50.005Z,3.70
2023-05-01T11:57:16.577Z,3.30
2023-05-01T11:59:47.318Z,2.78
2023-05-01T12:02:19.643Z,2.72
2023-05-01T12:04:47.301Z,3.00
2023-05-01T12:07:21.454Z,2.92
2023-05-01T12:09:48.464Z,2.92
2023-05-01T12:12:15.074Z,3.10
2023-05-01T12:14:42.141Z,2.75
2023-05-01T12:17:11.663Z,3.28
2023-05-01T12:19:48.898Z,3.15
2023-05-01T12:22:15.475Z,2.88
2023-05-01T12:24:54.230Z,3.35
2023-05-01T12:27:21.059Z,2.70
2023-05-01T12:29:48.229Z,2.65
2023-05-01T12:32:18.337Z,3.20
2023-05-01T12:34:45.140Z,3.58
2023-05-01T12:37:12.098Z,3.70
2023-05-01T12:39:44.502Z,3.92
2023-05-01T12:42:17.880Z,3.92
2023-05-01T12:44:44.324Z,4.10
2023-05-01T12:47:12.761Z,4.30
2023-05-01T12:52:08.743Z,3.85
2023-05-01T12:54:40.518Z,3.67
2023-05-01T12:57:09.577Z,3.92
2023-05-01T12:59:37.781Z,3.80
2023-05-01T13:02:07.478Z,3.58
2023-05-01T13:04:35.144Z,3.60
2023-05-01T13:07:02.012Z,3.70
2023-05-01T13:09:32.436Z,3.60
2023-05-01T13:12:05.705Z,3.40
2023-05-01T13:14:40.472Z,2.55
2023-05-01T13:17:09.516Z,2.83
2023-05-01T13:19:36.719Z,3.25
2023-05-01T13:22:03.614Z,3.72
2023-05-01T13:24:41.611Z,3.13
2023-05-01T13:27:08.558Z,3.95
2023-05-01T13:29:36.242Z,3.92
2023-05-01T13:32:10.028Z,3.67
2023-05-01T13:34:37.512Z,3.63
2023-05-01T13:37:04.139Z,3.63
2023-05-01T13:39:30.717Z,3.75
2023-05-01T13:41:57.218Z,3.53
2023-05-01T13:44:23.761Z,3.20
2023-05-01T13:46:50.254Z,2.80
2023-05-01T13:49:25.678Z,3.20
2023-05-01T13:51:52.712Z,2.92
2023-05-01T13:54:19.436Z,2.75
2023-05-01T13:56:46.545Z,3.60
2023-05-01T13:59:12.985Z,2.63
2023-05-01T14:01:42.676Z,2.97
2023-05-01T14:04:11.029Z,2.53
2023-05-01T14:06:43.032Z,2.85
2023-05-01T14:09:09.823Z,3.03
2023-05-01T14:11:46.940Z,3.08
2023-05-01T14:14:17.382Z,2.67
2023-05-01T14:16:48.229Z,3.03
2023-05-01T14:19:17.232Z,2.95
2023-05-01T14:21:44.141Z,3.20
2023-05-01T14:24:11.312Z,3.15
2023-05-01T14:26:44.304Z,3.13
2023-05-01T14:29:28.028Z,3.13
2023-05-01T14:31:55.854Z,2.63
2023-05-01T14:34:23.059Z,2.50
2023-05-01T14:36:50.066Z,2.70
2023-05-01T14:39:17.195Z,2.30
2023-05-01T14:41:45.119Z,2.60
2023-05-01T14:44:16.346Z,2.30
2023-05-01T14:46:51.452Z,2.45
2023-05-01T14:49:22.311Z,2.10
2023-05-01T14:51:49.094Z,2.55
2023-05-01T14:54:16.085Z,2.47
2023-05-01T14:56:43.293Z,2.55
2023-05-01T14:59:09.744Z,2.38
2023-05-01T15:01:36.417Z,2.97
2023-05-01T15:04:03.992Z,2.75
2023-05-01T15:06:31.317Z,3.40
2023-05-01T15:08:57.750Z,2.72
2023-05-01T15:11:24.286Z,3.20
2023-05-01T15:13:50.875Z,2.97
2023-05-01T15:16:17.448Z,3.22
2023-05-01T15:18:43.977Z,3.25
2023-05-01T15:21:10.835Z,3.60
2023-05-01T15:23:37.379Z,3.13
2023-05-01T15:26:03.943Z,3.35
2023-05-01T15:28:30.451Z,3.50
2023-05-01T15:30:56.906Z,3.55
2023-05-01T15:33:23.531Z,3.33
2023-05-01T15:35:52.586Z,3.03
2023-05-01T15:38:20.943Z,3.47
2023-05-01T15:40:47.517Z,3.30
2023-05-01T15:43:14.006Z,3.47
2023-05-01T15:45:43.481Z,3.22
2023-05-01T15:48:13.892Z,4.03
2023-05-01T15:50:40.827Z,3.88
2023-05-01T15:53:07.353Z,3.85
2023-05-01T15:55:34.646Z,4.00
2023-05-01T15:58:02.123Z,3.83
2023-05-01T16:00:28.729Z,4.43
2023-05-01T16:02:55.224Z,4.18
2023-05-01T16:05:21.969Z,4.45
2023-05-01T16:07:53.988Z,4.25
2023-05-01T16:10:20.963Z,4.47
2023-05-01T16:12:50.435Z,4.22
2023-05-01T16:15:17.237Z,4.13
2023-05-01T16:17:45.223Z,4.38
2023-05-01T16:20:14.136Z,4.57
2023-05-01T16:22:42.754Z,4.38
2023-05-01T16:25:09.820Z,4.93
2023-05-01T16:27:41.239Z,4.90
2023-05-01T16:30:09.179Z,4.88
2023-05-01T16:32:36.346Z,5.13
2023-05-01T16:35:05.396Z,4.88
2023-05-01T16:37:33.897Z,5.13
2023-05-01T16:40:01.169Z,5.93
2023-05-01T16:42:28.073Z,6.40
2023-05-01T16:44:56.494Z,6.47
2023-05-01T16:47:24.206Z,6.55
2023-05-01T16:49:52.307Z,6.47
2023-05-01T16:52:18.789Z,6.40
2023-05-01T16:54:45.179Z,6.55
2023-05-01T16:57:11.717Z,6.72
2023-05-01T16:59:38.193Z,6.95
2023-05-01T17:02:05.747Z,6.80
2023-05-01T17:04:33.399Z,6.78
2023-05-01T17:07:00.071Z,6.70
2023-05-01T17:09:27.108Z,6.20
2023-05-01T17:11:58.959Z,6.78
2023-05-01T17:14:27.724Z,6.50
2023-05-01T17:16:54.268Z,6.60
2023-05-01T17:19:20.754Z,5.95
2023-05-01T17:21:47.267Z,6.43
2023-05-01T17:24:13.938Z,6.93
2023-05-01T17:26:40.499Z,6.55
2023-05-01T17:29:07.017Z,6.30
2023-05-01T17:31:33.557Z,6.38
2023-05-01T17:34:00.664Z,6.57
2023-05-01T17:36:27.202Z,6.32
2023-05-01T17:38:54.642Z,7.03
2023-05-01T17:41:23.401Z,7.13
2023-05-01T17:43:49.836Z,6.50
2023-05-01T17:46:17.147Z,6.93
2023-05-01T17:48:44.138Z,7.60
2023-05-01T17:51:10.745Z,6.97
2023-05-01T17:53:55.766Z,7.28
2023-05-01T17:56:22.514Z,7.53
2023-05-01T17:58:49.036Z,6.93
2023-05-01T18:01:15.624Z,8.35
2023-05-01T18:03:42.342Z,8.57
2023-05-01T18:06:08.952Z,9.07
2023-05-01T18:08:36.585Z,7.97
2023-05-01T18:11:03.740Z,8.60
2023-05-01T18:13:33.391Z,9.27
2023-05-01T18:15:59.817Z,8.85
2023-05-01T18:18:27.419Z,9.02
2023-05-01T18:20:54.085Z,8.80
2023-05-01T18:23:20.548Z,9.20
2023-05-01T18:25:47.069Z,9.05
2023-05-01T18:28:16.288Z,9.80
2023-05-01T18:30:42.974Z,9.27
2023-05-01T18:33:09.943Z,10.88
2023-05-01T18:35:41.801Z,10.02
2023-05-01T18:38:11.563Z,10.13
2023-05-01T18:40:38.018Z,10.02
2023-05-01T18:43:05.086Z,10.10
2023-05-01T18:45:31.511Z,10.23
2023-05-01T18:48:00.753Z,10.20
2023-05-01T18:50:27.348Z,10.65
2023-05-01T18:52:53.804Z,11.20
2023-05-01T18:55:20.464Z,11.50
2023-05-01T18:57:48.334Z,10.75
2023-05-01T19:00:16.548Z,11.95
2023-05-01T19:02:44.506Z,12.43
2023-05-01T19:05:11.053Z,12.55
2023-05-01T19:07:37.725Z,11.48
2023-05-01T19:10:04.417Z,12.10
2023-05-01T19:12:31.107Z,12.02
2023-05-01T19:14:57.646Z,11.90
2023-05-01T19:17:24.303Z,12.20
2023-05-01T19:19:50.832Z,13.13
2023-05-01T19:22:17.564Z,13.75
2023-05-01T19:24:44.042Z,13.43
2023-05-01T19:27:11.690Z,13.05
2023-05-01T19:29:39.639Z,12.82
2023-05-01T19:32:07.043Z,13.73
2023-05-01T19:34:33.555Z,13.63
2023-05-01T19:37:01.915Z,15.25
2023-05-01T19:39:29.136Z,13.50
2023-05-01T19:41:55.666Z,13.63
2023-05-01T19:44:22.194Z,14.02
2023-05-01T19:46:49.137Z,14.52
2023-05-01T19:49:15.638Z,13.85
2023-05-01T19:51:42.362Z,13.38
2023-05-01T19:54:08.836Z,14.48
2023-05-01T19:56:35.246Z,13.93
2023-05-01T19:59:01.680Z,14.77
2023-05-01T20:01:31.212Z,13.55
2023-05-01T20:03:57.834Z,13.15
2023-05-01T20:06:24.385Z,13.38
2023-05-01T20:08:50.872Z,13.52
2023-05-01T20:11:17.334Z,13.43
2023-05-01T20:13:45.335Z,13.27
2023-05-01T20:16:11.838Z,13.85
2023-05-01T20:18:38.305Z,12.85
2023-05-01T20:21:06.033Z,14.95
2023-05-01T20:23:32.501Z,15.05
2023-05-01T20:26:00.438Z,14.05
2023-05-01T20:28:26.968Z,13.95
2023-05-01T20:30:53.428Z,15.80
2023-05-01T20:33:19.859Z,16.85
2023-05-01T20:35:46.902Z,15.63
2023-05-01T20:38:13.479Z,15.23
2023-05-01T20:40:40.636Z,14.63
2023-05-01T20:43:07.255Z,15.35
2023-05-01T20:45:34.140Z,14.65
2023-05-01T20:48:01.625Z,15.05
2023-05-01T20:50:28.152Z,16.52
2023-05-01T20:52:56.179Z,16.27
2023-05-01T20:55:23.710Z,14.13
2023-05-01T20:57:50.313Z,13.70
2023-05-01T21:00:17.245Z,13.27
2023-05-01T21:02:44.061Z,12.32
2023-05-01T21:05:11.256Z,12.60
2023-05-01T21:07:38.916Z,13.35
2023-05-01T21:10:07.200Z,13.98
2023-05-01T21:12:33.832Z,12.90
2023-05-01T21:15:04.594Z,14.02
2023-05-01T21:17:32.981Z,12.95
2023-05-01T21:19:59.798Z,12.07
2023-05-01T21:22:26.665Z,12.65
2023-05-01T21:24:55.172Z,12.40
2023-05-01T21:27:22.381Z,12.02
2023-05-01T21:29:55.914Z,12.00
2023-05-01T21:32:32.207Z,10.68
2023-05-01T21:34:59.651Z,10.95
2023-05-01T21:37:26.322Z,10.50
2023-05-01T21:39:53.079Z,10.68
2023-05-01T21:42:19.567Z,10.95
2023-05-01T21:44:46.103Z,10.05
2023-05-01T21:47:13.021Z,9.48
2023-05-01T21:49:39.884Z,9.55
2023-05-01T21:52:08.625Z,11.02
2023-05-01T21:54:36.443Z,10.23
2023-05-01T21:57:05.444Z,11.40
2023-05-01T21:59:37.837Z,10.20
2023-05-01T22:02:07.531Z,11.27
2023-05-01T22:04:34.736Z,10.35
2023-05-01T22:07:01.613Z,11.13
2023-05-01T22:09:28.358Z,9.75
2023-05-01T22:11:54.897Z,10.18
2023-05-01T22:14:21.542Z,9.35
2023-05-01T22:16:48.084Z,10.00
2023-05-01T22:19:15.381Z,8.80
2023-05-01T22:21:42.144Z,9.40
2023-05-01T22:24:08.629Z,9.10
2023-05-01T22:26:35.142Z,9.25
2023-05-01T22:29:01.905Z,8.02
2023-05-01T22:31:28.361Z,8.13
2023-05-01T22:33:55.260Z,8.63
2023-05-01T22:36:21.717Z,8.43
2023-05-01T22:38:48.125Z,8.73
2023-05-01T22:41:15.124Z,7.57
2023-05-01T22:43:41.716Z,7.47
2023-05-01T22:46:08.195Z,7.38
2023-05-01T22:48:34.651Z,6.93
2023-05-01T22:51:01.283Z,6.82
2023-05-01T22:53:28.557Z,6.95
2023-05-01T22:55:55.271Z,7.40
2023-05-01T22:58:21.690Z,6.97
2023-05-01T23:00:48.170Z,7.97
2023-05-01T23:03:15.332Z,8.20
2023-05-01T23:05:42.037Z,7.20
2023-05-01T23:08:08.491Z,7.57
2023-05-01T23:10:40.593Z,8.07
2023-05-01T23:13:15.688Z,7.15
2023-05-01T23:15:46.338Z,7.82
2023-05-01T23:18:23.548Z,8.30
2023-05-01T23:20:52.555Z,7.85
2023-05-01T23:23:22.554Z,8.30
2023-05-01T23:25:50.452Z,8.40
2023-05-01T23:28:22.165Z,8.88
2023-05-01T23:31:00.164Z,9.35
2023-05-01T23:33:38.486Z,8.57
2023-05-01T23:36:10.221Z,8.73
2023-05-01T23:38:36.706Z,9.48
2023-05-01T23:41:04.101Z,9.18
2023-05-01T23:43:30.565Z,9.50
2023-05-01T23:45:57.163Z,10.38
2023-05-01T23:48:23.748Z,9.77
2023-05-01T23:50:50.204Z,10.30
2023-05-01T23:53:16.703Z,9.60
2023-05-01T23:55:46.072Z,12.05
2023-05-01T23:58:13.229Z,11.57
